METAR Data
IDs: Format: Raw Decoded Include TAF

Data at: 1035 UTC 28 Sep 2021

LRSV 281030Z 09008KT 9999 OVC031 12/07 Q1023